Time;durP1;ratioP1;P1;durP2;ratioP2;P2;SDS_P1;SDS_P2;PMS_P1;PMS_P2;Temp;Humidity;BMP_temperature;BMP_pressure;BME280_temperature;BME280_humidity;BME280_pressure;Samples;Min_cycle;Max_cycle;Signal;HPM_P1;HPM_P2
2022/05/01 00:09:14;;;;;;;26.52;15.20;;;;;;;9.97;96.43;101003.34;21160874;28;20060;-71
2022/05/01 00:19:17;;;;;;;23.52;15.07;;;;;;;9.91;97.09;101007.69;21160317;28;20533;-73
2022/05/01 00:29:38;;;;;;;22.70;14.52;;;;;;;9.85;99.49;101005.97;21156936;28;20075;-71
2022/05/01 00:39:40;;;;;;;25.02;14.70;;;;;;;9.82;99.05;100992.94;21159355;28;20043;-71
2022/05/01 00:49:42;;;;;;;26.20;14.60;;;;;;;9.79;99.52;100981.59;21158266;28;20062;-71
2022/05/01 00:59:45;;;;;;;20.98;14.35;;;;;;;9.74;98.41;100982.47;21157977;28;20142;-71
2022/05/01 01:09:48;;;;;;;23.03;14.43;;;;;;;9.81;98.52;100980.72;21157109;28;20392;-72
2022/05/01 01:19:49;;;;;;;24.17;14.15;;;;;;;9.71;97.05;100968.53;21156552;28;20093;-71
2022/05/01 01:40:16;;;;;;;23.42;14.45;;;;;;;9.48;96.94;100966.84;21151243;28;20172;-71
2022/05/01 01:50:18;;;;;;;21.52;13.20;;;;;;;9.51;100.00;100966.84;21154410;28;20051;-71
2022/05/01 02:00:19;;;;;;;19.33;12.75;;;;;;;9.49;100.00;100963.38;21154001;28;20077;-71
2022/05/01 02:10:21;;;;;;;17.75;11.77;;;;;;;9.55;100.00;100962.50;21154153;28;20040;-71
2022/05/01 02:20:22;;;;;;;20.08;12.20;;;;;;;9.54;100.00;100960.75;21153009;28;20438;-72
2022/05/01 02:30:24;;;;;;;19.05;12.75;;;;;;;9.58;100.00;100951.13;21151556;28;20051;-71
2022/05/01 02:40:26;;;;;;;24.35;13.80;;;;;;;9.61;100.00;100948.53;21150547;28;20511;-71
2022/05/01 02:50:27;;;;;;;18.25;12.20;;;;;;;9.39;100.00;100934.63;21158112;28;20537;-71
2022/05/01 03:00:29;;;;;;;21.05;12.77;;;;;;;9.50;100.00;100944.22;21166553;28;20046;-72
2022/05/01 03:10:30;;;;;;;20.48;13.50;;;;;;;9.39;100.00;100945.09;21166461;28;20044;-72
2022/05/01 03:30:52;;;;;;;22.60;12.88;;;;;;;9.46;98.95;100921.56;21165133;28;20742;-71
2022/05/01 03:40:54;;;;;;;20.92;13.27;;;;;;;9.46;99.72;100918.06;21162203;28;20385;-71
2022/05/01 03:50:58;;;;;;;21.35;12.73;;;;;;;9.43;99.77;100908.47;21162900;28;20051;-72
2022/05/01 04:01:00;;;;;;;23.15;13.52;;;;;;;9.52;99.00;100900.63;21150069;28;20089;-72
2022/05/01 04:11:03;;;;;;;20.38;13.23;;;;;;;9.36;100.00;100919.84;21095235;22;20044;-80
2022/05/01 04:21:04;;;;;;;23.88;13.32;;;;;;;9.37;100.00;100925.94;21046561;28;20109;-80
2022/05/01 04:31:06;;;;;;;21.17;12.75;;;;;;;9.43;100.00;100926.78;21010200;28;20052;-80
2022/05/01 04:41:07;;;;;;;20.30;12.60;;;;;;;9.51;99.20;100926.78;21044150;28;20050;-80
2022/05/01 04:51:09;;;;;;;20.35;13.70;;;;;;;9.55;98.10;100940.72;20996651;28;20048;-80
2022/05/01 05:01:10;;;;;;;23.73;13.40;;;;;;;9.71;98.31;100939.78;21015196;28;20473;-80
2022/05/01 05:11:12;;;;;;;19.60;12.70;;;;;;;9.72;97.05;100951.97;21044814;28;20044;-80
2022/05/01 05:21:13;;;;;;;20.50;12.25;;;;;;;9.89;96.70;100950.16;21047506;28;20106;-79
2022/05/01 05:31:15;;;;;;;18.27;11.65;;;;;;;10.14;93.04;100963.13;21040283;28;20047;-79
2022/05/01 05:41:16;;;;;;;15.93;10.90;;;;;;;10.24;89.34;100959.63;21065268;28;20045;-80
2022/05/01 05:51:18;;;;;;;16.80;10.30;;;;;;;9.99;92.54;100970.19;21041735;28;20077;-81
2022/05/01 06:01:19;;;;;;;17.23;10.80;;;;;;;9.98;91.66;100968.44;21028818;28;20058;-80
2022/05/01 06:11:21;;;;;;;19.23;11.82;;;;;;;9.95;90.98;100973.69;21046329;28;20040;-80
2022/05/01 06:21:23;;;;;;;17.45;11.68;;;;;;;9.95;91.00;100972.81;21043324;28;20117;-80
2022/05/01 06:31:25;;;;;;;22.30;12.25;;;;;;;10.02;91.25;100975.41;20976191;28;20454;-80
2022/05/01 06:41:27;;;;;;;24.10;12.93;;;;;;;10.21;90.08;100975.34;21012018;28;20088;-80
2022/05/01 06:51:28;;;;;;;25.75;14.13;;;;;;;10.17;88.76;100963.13;21005921;28;20037;-80
2022/05/01 07:01:30;;;;;;;18.83;12.05;;;;;;;10.46;87.94;100982.19;20963754;28;20094;-81
2022/05/01 07:11:32;;;;;;;25.33;13.15;;;;;;;10.48;87.83;100983.03;20998415;28;20068;-81
2022/05/01 07:21:33;;;;;;;17.10;11.05;;;;;;;10.82;85.97;100977.56;20971780;28;20107;-81
2022/05/01 07:31:35;;;;;;;19.75;11.43;;;;;;;11.44;83.26;100965.66;21052040;28;20040;-81
2022/05/01 07:41:37;;;;;;;21.33;11.93;;;;;;;11.66;80.82;100960.22;21070469;28;20044;-81
2022/05/01 07:51:39;;;;;;;18.95;12.32;;;;;;;11.87;79.34;100951.25;21021574;28;20048;-81
2022/05/01 08:01:40;;;;;;;20.25;12.00;;;;;;;12.32;78.19;100952.41;21021284;28;20478;-80
2022/05/01 08:11:44;;;;;;;19.45;11.45;;;;;;;12.19;81.31;100956.09;21048648;28;20508;-82
2022/05/01 08:21:45;;;;;;;21.17;12.00;;;;;;;12.63;79.44;100934.44;21020010;28;20411;-81
2022/05/01 08:31:47;;;;;;;23.20;12.27;;;;;;;13.15;78.25;100935.31;21054235;28;20044;-81
2022/05/01 08:41:48;;;;;;;20.70;12.90;;;;;;;13.43;77.78;100948.88;21061232;28;20054;-81
2022/05/01 08:51:52;;;;;;;20.92;12.55;;;;;;;13.51;78.11;100934.69;21056416;28;20106;-78
2022/05/01 09:01:54;;;;;;;20.80;12.80;;;;;;;13.70;75.95;100939.56;21052471;28;20048;-78
2022/05/01 09:22:17;;;;;;;20.65;15.75;;;;;;;13.86;75.26;100936.59;21075374;28;20045;-78
2022/05/01 09:32:35;;;;;;;22.02;15.45;;;;;;;14.26;71.56;100948.03;21065952;28;20131;-78
2022/05/01 09:42:37;;;;;;;20.85;14.90;;;;;;;14.32;74.92;100934.72;20994469;28;20040;-79
2022/05/01 09:52:55;;;;;;;23.38;15.25;;;;;;;14.91;71.82;100934.28;20991072;28;20040;-79
2022/05/01 10:02:56;;;;;;;18.88;14.63;;;;;;;14.96;69.61;100941.16;21005990;28;20107;-79
2022/05/01 10:12:58;;;;;;;25.48;14.75;;;;;;;14.35;68.90;100932.91;21090590;28;20040;-79
2022/05/01 10:23:20;;;;;;;21.85;14.95;;;;;;;15.11;69.30;100932.84;21043119;28;20190;-79
2022/05/01 10:33:49;;;;;;;20.40;14.13;;;;;;;14.65;68.42;100933.13;21063874;28;20055;-79
2022/05/01 10:44:33;;;;;;;18.98;13.23;;;;;;;15.17;66.45;100909.84;21046875;28;20048;-78
2022/05/01 10:54:37;;;;;;;17.13;11.97;;;;;;;15.76;68.59;100899.44;21009338;28;20041;-78
2022/05/01 11:04:42;;;;;;;19.13;13.43;;;;;;;15.00;68.17;100897.97;21062127;23;20040;-68
2022/05/01 11:15:01;;;;;;;20.13;12.52;;;;;;;15.45;65.41;100884.44;21032563;28;20550;-68
2022/05/01 11:25:03;;;;;;;17.58;12.18;;;;;;;14.94;67.78;100881.44;21026384;28;20056;-68
2022/05/01 11:35:05;;;;;;;18.02;12.48;;;;;;;15.15;67.70;100875.63;21025351;28;20298;-68
2022/05/01 11:45:08;;;;;;;19.60;13.25;;;;;;;14.97;67.38;100873.47;21027456;28;20051;-68
2022/05/01 11:55:10;;;;;;;16.73;12.20;;;;;;;15.21;66.79;100858.75;21028247;28;20434;-68
2022/05/01 12:05:12;;;;;;;20.60;12.38;;;;;;;14.91;68.13;100855.16;21027856;28;20424;-68
2022/05/01 12:15:13;;;;;;;21.33;14.27;;;;;;;16.02;64.32;100838.78;21027050;28;20044;-68
2022/05/01 12:25:17;;;;;;;19.83;14.63;;;;;;;16.06;63.99;100837.78;21025383;28;20052;-66
2022/05/01 12:35:18;;;;;;;17.08;12.90;;;;;;;15.59;65.72;100833.91;21021786;28;20047;-67
2022/05/01 12:45:21;;;;;;;18.63;13.20;;;;;;;16.00;62.43;100829.16;21023078;28;20053;-67
2022/05/01 12:55:34;;;;;;;17.85;12.52;;;;;;;15.90;61.11;100823.31;21023376;28;20447;-67
2022/05/01 13:05:35;;;;;;;16.83;13.32;;;;;;;15.95;65.33;100807.31;21020453;28;20483;-67
2022/05/01 13:15:38;;;;;;;21.02;14.25;;;;;;;15.76;63.63;100804.38;21019225;28;20056;-66
2022/05/01 13:25:40;;;;;;;20.00;15.10;;;;;;;16.30;60.63;100780.66;21022268;28;20052;-67
2022/05/01 13:35:42;;;;;;;18.88;13.73;;;;;;;16.02;62.23;100779.81;21018689;28;20507;-67
2022/05/01 13:45:43;;;;;;;18.35;13.27;;;;;;;16.25;64.27;100779.06;21019203;28;20044;-67
2022/05/01 13:55:45;;;;;;;17.08;12.18;;;;;;;16.47;61.03;100777.41;21018884;28;20078;-67
2022/05/01 14:05:46;;;;;;;18.85;12.95;;;;;;;16.40;64.97;100760.91;21014132;28;20052;-67
2022/05/01 14:15:48;;;;;;;18.63;12.93;;;;;;;16.48;58.17;100752.75;21016764;28;20138;-67
2022/05/01 14:25:49;;;;;;;19.05;13.02;;;;;;;17.41;57.44;100729.97;21016769;28;20057;-67
2022/05/01 14:35:50;;;;;;;19.15;12.63;;;;;;;17.10;59.39;100714.38;21015882;28;20051;-67
2022/05/01 14:46:07;;;;;;;20.60;13.13;;;;;;;16.01;62.90;100726.13;21029436;28;20102;-67
2022/05/01 14:56:13;;;;;;;20.33;14.18;;;;;;;16.62;61.68;100697.59;21042415;28;20040;-66
2022/05/01 15:06:17;;;;;;;21.48;14.38;;;;;;;15.95;65.68;100709.59;21044954;28;20044;-66
2022/05/01 15:16:28;;;;;;;18.83;13.23;;;;;;;15.74;65.33;100695.34;21042862;28;20049;-66
2022/05/01 15:26:32;;;;;;;16.73;11.23;;;;;;;16.46;63.95;100690.25;21040679;28;20048;-68
2022/05/01 15:36:36;;;;;;;18.17;13.48;;;;;;;16.28;61.10;100692.63;21040996;28;20562;-67
2022/05/01 15:46:46;;;;;;;16.93;12.93;;;;;;;16.42;64.44;100690.34;21041231;28;20558;-68
2022/05/01 15:56:50;;;;;;;15.57;10.73;;;;;;;16.09;66.74;100686.25;21024855;28;20151;-68
2022/05/01 16:06:55;;;;;;;18.00;12.13;;;;;;;15.73;65.64;100677.78;21023537;28;20044;-69
2022/05/01 16:17:11;;;;;;;15.52;11.45;;;;;;;15.95;62.88;100668.22;21018007;28;20049;-68
2022/05/01 16:27:38;;;;;;;16.25;11.57;;;;;;;15.67;61.30;100667.44;21021422;28;20507;-68
2022/05/01 16:37:46;;;;;;;16.45;10.82;;;;;;;15.88;64.06;100658.78;21021759;28;20051;-66
2022/05/01 16:47:49;;;;;;;15.52;11.13;;;;;;;15.75;63.46;100646.91;21022430;28;20052;-66
2022/05/01 16:57:52;;;;;;;18.58;11.13;;;;;;;15.79;64.24;100646.75;21021971;28;20549;-66
2022/05/01 17:08:31;;;;;;;15.60;10.98;;;;;;;15.97;62.17;100639.13;21015534;28;20048;-65
2022/05/01 17:18:50;;;;;;;16.48;11.15;;;;;;;15.65;62.37;100635.78;21015937;28;20121;-66
2022/05/01 17:28:54;;;;;;;17.90;10.57;;;;;;;15.60;63.80;100641.16;21021645;28;20062;-66
2022/05/01 17:38:57;;;;;;;15.02;9.95;;;;;;;15.56;62.83;100644.81;21011415;28;20049;-66
2022/05/01 17:49:00;;;;;;;15.15;9.65;;;;;;;15.40;64.38;100647.09;21017468;28;20049;-66
2022/05/01 17:59:02;;;;;;;16.40;10.07;;;;;;;15.11;66.40;100647.16;21016938;28;20044;-66
2022/05/01 18:20:04;;;;;;;12.35;8.82;;;;;;;14.28;75.53;100648.63;21011207;28;20044;-66
2022/05/01 18:30:21;;;;;;;14.40;9.38;;;;;;;13.84;79.33;100663.78;21015405;28;20048;-65
2022/05/01 18:40:24;;;;;;;13.10;9.10;;;;;;;13.13;83.69;100669.81;21011823;28;20048;-65
2022/05/01 18:50:25;;;;;;;13.77;9.15;;;;;;;12.84;85.84;100675.69;21013889;28;20044;-66
2022/05/01 19:00:27;;;;;;;16.52;10.15;;;;;;;12.52;88.54;100690.31;21012922;28;20086;-65
2022/05/01 19:10:37;;;;;;;16.85;11.50;;;;;;;12.29;89.97;100695.13;21016972;28;20040;-65
2022/05/01 19:21:08;;;;;;;17.55;12.75;;;;;;;12.10;90.03;100704.22;21015736;28;20044;-66
2022/05/01 19:31:23;;;;;;;19.42;13.25;;;;;;;11.85;92.66;100698.53;21016153;28;20052;-65
2022/05/01 19:41:27;;;;;;;;;;;;;;;11.69;94.31;100692.59;21027579;28;20049;-66
2022/05/01 20:01:50;;;;;;;23.00;15.65;;;;;;;11.28;97.45;100704.56;21028503;28;20095;-65
2022/05/01 20:11:52;;;;;;;26.75;18.13;;;;;;;11.21;98.70;100706.44;21030251;28;20044;-65
2022/05/01 20:22:00;;;;;;;24.73;17.42;;;;;;;11.14;100.00;100709.13;21025970;28;20059;-65
2022/05/01 20:32:17;;;;;;;21.65;16.20;;;;;;;10.91;100.00;100709.41;21028739;28;20048;-66
2022/05/01 20:42:36;;;;;;;24.15;16.77;;;;;;;10.74;100.00;100704.41;21023940;28;20079;-65
2022/05/01 20:52:56;;;;;;;25.23;18.98;;;;;;;10.52;100.00;100703.75;21021454;28;20315;-65
2022/05/01 21:03:00;;;;;;;31.25;19.67;;;;;;;10.39;100.00;100700.38;21021328;28;20054;-65
2022/05/01 21:13:01;;;;;;;28.30;19.13;;;;;;;10.35;100.00;100689.97;21020370;28;20409;-66
2022/05/01 21:23:04;;;;;;;25.23;18.52;;;;;;;10.17;100.00;100686.63;21020951;28;20052;-67
2022/05/01 21:33:06;;;;;;;28.38;20.77;;;;;;;10.03;100.00;100689.38;21020136;28;20077;-67
2022/05/01 21:43:07;;;;;;;29.65;21.05;;;;;;;9.91;100.00;100679.00;21019870;28;20098;-66
2022/05/01 21:53:10;;;;;;;28.83;21.33;;;;;;;9.73;100.00;100679.16;21020785;28;20070;-66
2022/05/01 22:03:11;;;;;;;30.60;22.58;;;;;;;9.64;100.00;100681.84;21013461;28;20056;-66
2022/05/01 22:13:13;;;;;;;28.50;20.88;;;;;;;9.37;100.00;100675.91;21021644;28;20710;-66
2022/05/01 22:23:15;;;;;;;33.47;23.10;;;;;;;9.35;100.00;100669.84;21019760;28;20059;-66
2022/05/01 22:33:16;;;;;;;31.75;22.05;;;;;;;9.32;100.00;100672.47;21022127;28;20044;-67
2022/05/01 22:43:18;;;;;;;32.45;23.27;;;;;;;9.16;100.00;100655.16;21024708;28;20059;-66
2022/05/01 22:53:20;;;;;;;30.55;22.08;;;;;;;9.02;100.00;100649.16;21023264;28;20101;-66
2022/05/01 23:03:22;;;;;;;30.85;21.77;;;;;;;8.87;100.00;100648.34;21019744;28;20117;-67
2022/05/01 23:13:23;;;;;;;31.25;21.90;;;;;;;8.81;100.00;100643.13;21039193;28;20044;-66
2022/05/01 23:23:29;;;;;;;32.83;23.52;;;;;;;8.67;100.00;100644.94;21039459;28;20041;-67
2022/05/01 23:33:30;;;;;;;36.25;25.10;;;;;;;8.55;100.00;100645.00;21037642;28;20045;-67
2022/05/01 23:43:32;;;;;;;38.15;25.35;;;;;;;8.67;100.00;100635.41;21037876;28;20048;-69
2022/05/01 23:53:33;;;;;;;34.58;24.77;;;;;;;8.64;100.00;100629.31;21036752;28;20063;-68
